Terminal Aerodrome Forecast
Issued by NWS

Home | Current Version | Previous Version | Text Only | Print | Product List | Glossary On
Versions: 1 2 3 4 5 6 7 8 9 10 11 12 13 14
218
FTUS42 KTBW 232325
TAFPIE
TAF
KPIE 232325Z 2400/2424 21017G25KT P6SM SCT025 OVC250
     FM240100 22012G17KT P6SM SCT025 SCT040 OVC250
     FM240900 20014G20KT P6SM VCTS SCT030CB OVC050
     FM241500 21020G28KT 5SM -RA VCTS SCT030CB OVC050=

USA.gov is the U.S. government's official web portal to all federal, state and local government web resources and services.